createdAt,value
2022-09-15T00:00:32.876Z,16.50
2022-09-15T00:04:14.816Z,16.40
2022-09-15T00:07:56.738Z,16.40
2022-09-15T00:11:39.168Z,16.40
2022-09-15T00:15:21.905Z,16.40
2022-09-15T00:19:06.694Z,16.40
2022-09-15T00:22:49.397Z,16.40
2022-09-15T00:26:32.351Z,16.40
2022-09-15T00:30:14.198Z,16.40
2022-09-15T00:33:58.965Z,16.50
2022-09-15T00:37:40.867Z,16.50
2022-09-15T00:41:24.507Z,16.50
2022-09-15T00:45:06.945Z,16.50
2022-09-15T00:48:59.995Z,16.50
2022-09-15T00:52:57.787Z,16.50
2022-09-15T00:56:42.838Z,16.50
2022-09-15T01:00:27.704Z,16.50
2022-09-15T01:04:09.891Z,16.50
2022-09-15T01:08:09.951Z,16.50
2022-09-15T01:11:51.877Z,16.50
2022-09-15T01:16:01.786Z,16.50
2022-09-15T01:20:20.978Z,16.50
2022-09-15T01:24:30.599Z,16.50
2022-09-15T01:28:54.955Z,16.50
2022-09-15T01:33:04.273Z,16.50
2022-09-15T01:36:57.057Z,16.50
2022-09-15T01:40:54.865Z,16.50
2022-09-15T01:44:44.816Z,16.50
2022-09-15T01:48:28.512Z,16.50
2022-09-15T01:52:10.455Z,16.50
2022-09-15T01:56:07.464Z,16.50
2022-09-15T01:59:55.257Z,16.50
2022-09-15T02:03:44.744Z,16.40
2022-09-15T02:07:45.033Z,16.40
2022-09-15T02:11:28.261Z,16.40
2022-09-15T02:15:15.136Z,16.30
2022-09-15T02:19:27.259Z,16.30
2022-09-15T02:23:18.972Z,16.20
2022-09-15T02:27:04.065Z,16.20
2022-09-15T02:30:48.077Z,16.10
2022-09-15T02:34:35.762Z,16.10
2022-09-15T02:38:17.908Z,16.00
2022-09-15T02:42:02.449Z,16.00
2022-09-15T02:45:44.520Z,16.00
2022-09-15T02:49:26.634Z,16.00
2022-09-15T02:53:09.148Z,16.00
2022-09-15T02:56:51.015Z,16.00
2022-09-15T03:00:33.077Z,16.00
2022-09-15T03:04:15.129Z,16.00
2022-09-15T03:07:57.709Z,15.90
2022-09-15T03:11:39.773Z,16.00
2022-09-15T03:15:24.423Z,15.90
2022-09-15T03:19:06.548Z,16.00
2022-09-15T03:22:49.808Z,15.90
2022-09-15T03:26:31.738Z,15.90
2022-09-15T03:30:14.528Z,15.80
2022-09-15T03:33:56.329Z,15.80
2022-09-15T03:37:38.435Z,15.80
2022-09-15T03:41:20.306Z,15.80
2022-09-15T03:45:02.168Z,15.80
2022-09-15T03:48:44.570Z,15.70
2022-09-15T03:52:26.549Z,15.70
2022-09-15T03:56:11.243Z,15.60
2022-09-15T03:59:53.181Z,15.60
2022-09-15T04:03:39.079Z,15.50
2022-09-15T04:07:26.056Z,15.50
2022-09-15T04:11:10.051Z,15.50
2022-09-15T04:14:51.944Z,15.40
2022-09-15T04:18:34.304Z,15.40
2022-09-15T04:22:17.936Z,15.40
2022-09-15T04:26:08.919Z,15.40
2022-09-15T04:29:52.348Z,15.40
2022-09-15T04:33:34.632Z,15.50
2022-09-15T04:37:16.536Z,15.50
2022-09-15T04:40:59.019Z,15.50
2022-09-15T04:44:40.984Z,15.50
2022-09-15T04:48:23.572Z,15.60
2022-09-15T04:52:09.506Z,15.60
2022-09-15T04:55:51.886Z,15.60
2022-09-15T04:59:34.338Z,15.60
2022-09-15T05:03:16.217Z,15.60
2022-09-15T05:06:58.083Z,15.60
2022-09-15T05:10:39.988Z,15.60
2022-09-15T05:14:21.769Z,15.60
2022-09-15T05:18:03.856Z,15.60
2022-09-15T05:21:45.921Z,15.60
2022-09-15T05:25:28.435Z,15.60
2022-09-15T05:29:10.317Z,15.60
2022-09-15T05:32:53.535Z,15.60
2022-09-15T05:36:35.361Z,15.60
2022-09-15T05:40:17.385Z,15.60
2022-09-15T05:43:59.353Z,15.60
2022-09-15T05:47:41.183Z,15.60
2022-09-15T05:51:23.815Z,15.60
2022-09-15T05:55:05.915Z,15.70
2022-09-15T05:58:48.924Z,15.70
2022-09-15T06:02:31.256Z,15.70
2022-09-15T06:06:13.968Z,15.70
2022-09-15T06:09:55.823Z,15.70
2022-09-15T06:13:38.549Z,15.80
2022-09-15T06:17:22.350Z,15.80
2022-09-15T06:21:06.672Z,15.80
2022-09-15T06:24:48.576Z,15.80
2022-09-15T06:28:30.430Z,15.90
2022-09-15T06:32:12.389Z,15.90
2022-09-15T06:35:54.609Z,15.90
2022-09-15T06:39:36.495Z,16.00
2022-09-15T06:43:18.583Z,16.00
2022-09-15T06:47:00.481Z,16.00
2022-09-15T06:50:42.371Z,16.00
2022-09-15T06:54:24.321Z,16.00
2022-09-15T06:58:06.386Z,16.10
2022-09-15T07:01:52.304Z,16.10
2022-09-15T07:05:34.445Z,16.20
2022-09-15T07:09:16.721Z,16.30
2022-09-15T07:13:01.419Z,16.30
2022-09-15T07:16:43.384Z,16.40
2022-09-15T07:20:26.007Z,16.50
2022-09-15T07:24:08.016Z,16.50
2022-09-15T07:27:49.965Z,16.50
2022-09-15T07:31:34.563Z,16.60
2022-09-15T07:35:25.158Z,16.60
2022-09-15T07:39:07.657Z,16.70
2022-09-15T07:42:55.260Z,16.80
2022-09-15T07:46:49.450Z,16.90
2022-09-15T07:50:48.809Z,16.90
2022-09-15T07:54:37.421Z,17.00
2022-09-15T07:58:20.095Z,17.10
2022-09-15T08:02:02.211Z,17.20
2022-09-15T08:06:14.712Z,17.30
2022-09-15T08:14:03.467Z,17.50
2022-09-15T08:18:24.473Z,17.80
2022-09-15T08:22:08.161Z,18.10
2022-09-15T08:25:55.211Z,18.30
2022-09-15T08:29:40.647Z,18.30
2022-09-15T08:33:22.567Z,18.40
2022-09-15T08:37:04.596Z,18.50
2022-09-15T08:40:47.763Z,18.60
2022-09-15T08:44:49.727Z,18.60
2022-09-15T08:48:51.293Z,18.60
2022-09-15T08:52:43.489Z,18.80
2022-09-15T08:56:31.072Z,18.90
2022-09-15T09:00:17.674Z,19.10
2022-09-15T09:04:29.189Z,19.40
2022-09-15T09:08:31.793Z,19.70
2022-09-15T09:12:45.990Z,20.00
2022-09-15T09:16:45.944Z,20.40
2022-09-15T09:20:38.170Z,20.90
2022-09-15T09:24:50.462Z,21.80
2022-09-15T09:28:46.517Z,22.40
2022-09-15T09:32:54.342Z,22.50
2022-09-15T09:36:36.678Z,22.40
2022-09-15T09:40:20.044Z,22.00
2022-09-15T09:44:07.469Z,21.60
2022-09-15T09:47:49.643Z,21.40
2022-09-15T09:52:00.392Z,21.20
2022-09-15T09:55:42.391Z,21.00
2022-09-15T10:12:01.562Z,22.40
2022-09-15T10:15:43.861Z,22.50
2022-09-15T10:19:27.966Z,22.50
2022-09-15T10:23:26.908Z,22.20
2022-09-15T10:27:36.999Z,22.00
2022-09-15T10:31:31.929Z,22.00
2022-09-15T10:35:19.260Z,22.10
2022-09-15T10:39:24.834Z,22.10
2022-09-15T10:43:42.332Z,22.00
2022-09-15T10:48:09.079Z,21.90
2022-09-15T10:52:39.102Z,22.10
2022-09-15T10:56:46.347Z,23.00
2022-09-15T11:00:52.979Z,24.30
2022-09-15T11:04:53.856Z,24.60
2022-09-15T11:09:01.631Z,24.50
2022-09-15T11:13:14.829Z,24.40
2022-09-15T11:22:25.438Z,23.90
2022-09-15T11:26:32.716Z,23.60
2022-09-15T11:30:25.232Z,23.60
2022-09-15T11:34:56.311Z,23.60
2022-09-15T11:39:03.039Z,23.50
2022-09-15T11:43:22.275Z,23.10
2022-09-15T11:47:33.011Z,22.80
2022-09-15T11:51:19.721Z,22.70
2022-09-15T11:55:08.808Z,22.80
2022-09-15T11:58:59.413Z,22.60
2022-09-15T12:02:44.771Z,22.50
2022-09-15T12:06:43.312Z,22.70
2022-09-15T12:10:38.010Z,23.10
2022-09-15T12:14:41.677Z,23.10
2022-09-15T12:19:00.455Z,23.00
2022-09-15T12:23:29.879Z,23.80
2022-09-15T12:27:37.178Z,25.60
2022-09-15T12:31:40.760Z,26.00
2022-09-15T12:35:23.251Z,25.50
2022-09-15T12:39:27.428Z,25.60
2022-09-15T12:43:14.087Z,25.70
2022-09-15T12:46:58.090Z,25.40
2022-09-15T12:50:44.208Z,25.10
2022-09-15T12:54:34.292Z,25.40
2022-09-15T12:58:23.651Z,26.90
2022-09-15T13:07:15.289Z,27.80
2022-09-15T13:11:20.128Z,27.50
2022-09-15T13:15:07.238Z,27.60
2022-09-15T13:18:54.325Z,28.60
2022-09-15T13:22:41.244Z,28.70
2022-09-15T13:26:31.722Z,28.10
2022-09-15T13:30:58.577Z,28.00
2022-09-15T13:35:18.358Z,27.80
2022-09-15T13:39:39.737Z,29.00
2022-09-15T13:43:42.224Z,30.50
2022-09-15T13:47:52.724Z,31.10
2022-09-15T13:51:44.425Z,31.60
2022-09-15T13:55:29.645Z,31.70
2022-09-15T13:59:27.539Z,31.20
2022-09-15T14:03:15.286Z,30.60
2022-09-15T14:07:04.785Z,29.60
2022-09-15T14:10:59.241Z,28.50
2022-09-15T14:14:55.239Z,27.60
2022-09-15T14:18:51.253Z,27.00
2022-09-15T14:22:38.637Z,26.50
2022-09-15T14:26:30.280Z,26.10
2022-09-15T14:30:32.290Z,25.60
2022-09-15T14:34:35.382Z,25.20
2022-09-15T14:38:28.545Z,24.80
2022-09-15T14:42:32.706Z,24.40
2022-09-15T14:46:19.576Z,24.20
2022-09-15T14:50:20.765Z,24.10
2022-09-15T14:54:06.724Z,24.00
2022-09-15T15:03:00.539Z,23.90
2022-09-15T15:06:50.690Z,23.80
2022-09-15T15:14:31.345Z,23.50
2022-09-15T15:18:39.690Z,23.40
2022-09-15T15:22:30.313Z,23.30
2022-09-15T15:26:39.412Z,23.10
2022-09-15T15:30:39.694Z,22.90
2022-09-15T15:34:25.497Z,22.70
2022-09-15T15:38:11.643Z,22.60
2022-09-15T15:42:05.510Z,22.50
2022-09-15T15:46:01.935Z,22.30
2022-09-15T15:50:13.783Z,22.10
2022-09-15T15:53:56.905Z,22.10
2022-09-15T15:57:39.515Z,22.10
2022-09-15T16:01:23.678Z,22.00
2022-09-15T16:05:06.049Z,21.80
2022-09-15T16:13:20.727Z,21.70
2022-09-15T16:17:02.813Z,21.60
2022-09-15T16:20:49.245Z,21.60
2022-09-15T16:24:32.332Z,21.50
2022-09-15T16:32:26.977Z,21.40
2022-09-15T16:36:38.310Z,21.30
2022-09-15T16:40:20.340Z,21.20
2022-09-15T16:44:03.073Z,21.10
2022-09-15T16:47:44.949Z,21.00
2022-09-15T16:51:32.469Z,21.00
2022-09-15T16:55:37.061Z,21.00
2022-09-15T16:59:18.923Z,20.90
2022-09-15T17:03:00.875Z,20.90
2022-09-15T17:06:43.318Z,20.80
2022-09-15T17:10:25.278Z,20.70
2022-09-15T17:14:11.564Z,20.70
2022-09-15T17:17:57.421Z,20.60
2022-09-15T17:21:39.275Z,20.50
2022-09-15T17:25:21.592Z,20.50
2022-09-15T17:29:03.477Z,20.50
2022-09-15T17:32:48.065Z,20.40
2022-09-15T17:36:36.232Z,20.30
2022-09-15T17:40:20.420Z,20.30
2022-09-15T17:44:05.675Z,20.20
2022-09-15T17:47:49.143Z,20.10
2022-09-15T17:51:31.240Z,20.00
2022-09-15T17:55:19.369Z,20.00
2022-09-15T17:59:02.368Z,19.90
2022-09-15T18:02:48.964Z,19.80
2022-09-15T18:06:30.839Z,19.70
2022-09-15T18:10:13.478Z,19.60
2022-09-15T18:13:58.293Z,19.50
2022-09-15T18:17:42.955Z,19.40
2022-09-15T18:21:29.059Z,19.30
2022-09-15T18:25:28.280Z,19.10
2022-09-15T18:29:12.386Z,19.10
2022-09-15T18:32:58.107Z,19.00
2022-09-15T18:36:41.240Z,18.90
2022-09-15T18:40:24.167Z,18.80
2022-09-15T18:44:11.273Z,18.80
2022-09-15T18:47:55.556Z,18.70
2022-09-15T18:51:51.310Z,18.70
2022-09-15T18:55:33.710Z,18.60
2022-09-15T18:59:17.796Z,18.60
2022-09-15T19:03:02.209Z,18.60
2022-09-15T19:06:44.369Z,18.50
2022-09-15T19:10:30.547Z,18.50
2022-09-15T19:14:13.045Z,18.40
2022-09-15T19:17:55.110Z,18.30
2022-09-15T19:21:43.806Z,18.20
2022-09-15T19:25:25.952Z,18.10
2022-09-15T19:29:17.903Z,18.00
2022-09-15T19:33:00.245Z,18.00
2022-09-15T19:36:47.402Z,18.00
2022-09-15T19:40:29.365Z,18.00
2022-09-15T19:44:11.409Z,18.00
2022-09-15T19:47:53.356Z,18.00
2022-09-15T19:51:36.345Z,17.90
2022-09-15T19:55:19.033Z,17.90
2022-09-15T19:59:01.722Z,17.90
2022-09-15T20:02:48.027Z,17.90
2022-09-15T20:06:32.748Z,17.80
2022-09-15T20:10:15.586Z,17.80
2022-09-15T20:13:59.196Z,17.70
2022-09-15T20:17:42.506Z,17.50
2022-09-15T20:21:51.093Z,17.40
2022-09-15T20:25:33.758Z,17.20
2022-09-15T20:29:16.444Z,17.10
2022-09-15T20:32:59.235Z,17.00
2022-09-15T20:36:41.290Z,16.90
2022-09-15T20:40:24.614Z,16.80
2022-09-15T20:44:09.712Z,16.60
2022-09-15T20:47:51.673Z,16.50
2022-09-15T20:51:35.403Z,16.40
2022-09-15T20:55:19.692Z,16.30
2022-09-15T20:59:02.393Z,16.20
2022-09-15T21:02:44.316Z,16.10
2022-09-15T21:06:29.465Z,16.10
2022-09-15T21:10:19.054Z,16.10
2022-09-15T21:14:01.930Z,16.10
2022-09-15T21:17:45.669Z,16.20
2022-09-15T21:21:37.484Z,16.20
2022-09-15T21:25:21.150Z,16.20
2022-09-15T21:29:07.741Z,16.10
2022-09-15T21:32:49.615Z,16.00
2022-09-15T21:36:45.479Z,16.00
2022-09-15T21:40:28.192Z,16.00
2022-09-15T21:44:11.277Z,16.00
2022-09-15T21:47:53.109Z,15.90
2022-09-15T21:51:35.219Z,15.80
2022-09-15T21:55:17.067Z,15.80
2022-09-15T21:58:59.365Z,15.60
2022-09-15T22:02:41.250Z,15.60
2022-09-15T22:06:32.183Z,15.50
2022-09-15T22:10:14.196Z,15.50
2022-09-15T22:13:56.450Z,15.30
2022-09-15T22:17:38.354Z,15.30
2022-09-15T22:21:23.170Z,15.20
2022-09-15T22:25:05.896Z,15.10
2022-09-15T22:28:48.358Z,15.00
2022-09-15T22:32:30.498Z,15.00
2022-09-15T22:36:25.136Z,14.90
2022-09-15T22:40:10.628Z,14.80
2022-09-15T22:43:52.603Z,14.70
2022-09-15T22:47:34.524Z,14.60
2022-09-15T22:51:16.610Z,14.60
2022-09-15T22:54:58.839Z,14.50
2022-09-15T22:58:44.097Z,14.50
2022-09-15T23:02:26.761Z,14.40
2022-09-15T23:06:08.705Z,14.40
2022-09-15T23:09:50.732Z,14.40
2022-09-15T23:13:32.675Z,14.30
2022-09-15T23:17:14.556Z,14.20
2022-09-15T23:21:01.874Z,14.20
2022-09-15T23:24:43.901Z,14.10
2022-09-15T23:28:25.924Z,14.10
2022-09-15T23:32:08.163Z,14.00
2022-09-15T23:35:51.074Z,14.00
2022-09-15T23:39:33.093Z,14.00
2022-09-15T23:43:15.636Z,14.00
2022-09-15T23:46:57.627Z,13.90
2022-09-15T23:50:40.866Z,13.80
2022-09-15T23:54:22.807Z,13.80
2022-09-15T23:58:05.584Z,13.80
